sensor_id;sensor_type;location;lat;lon;timestamp;P1;durP1;ratioP1;P2;durP2;ratioP2
24650;SDS011;12783;48.824;8.662;2023-04-25T00:02:11;6.55;;;3.72;;
24650;SDS011;12783;48.824;8.662;2023-04-25T00:04:38;5.63;;;4.20;;
24650;SDS011;12783;48.824;8.662;2023-04-25T00:07:06;7.20;;;3.92;;
24650;SDS011;12783;48.824;8.662;2023-04-25T00:09:33;9.82;;;4.30;;
24650;SDS011;12783;48.824;8.662;2023-04-25T00:12:00;8.50;;;4.50;;
24650;SDS011;12783;48.824;8.662;2023-04-25T00:14:28;9.95;;;3.92;;
24650;SDS011;12783;48.824;8.662;2023-04-25T00:16:55;9.35;;;4.20;;
24650;SDS011;12783;48.824;8.662;2023-04-25T00:19:22;7.45;;;4.72;;
24650;SDS011;12783;48.824;8.662;2023-04-25T00:21:49;5.78;;;4.05;;
24650;SDS011;12783;48.824;8.662;2023-04-25T00:24:16;8.55;;;4.10;;
24650;SDS011;12783;48.824;8.662;2023-04-25T00:26:43;5.50;;;3.83;;
24650;SDS011;12783;48.824;8.662;2023-04-25T00:29:10;7.82;;;4.40;;
24650;SDS011;12783;48.824;8.662;2023-04-25T00:31:37;6.78;;;3.85;;
24650;SDS011;12783;48.824;8.662;2023-04-25T00:34:04;9.82;;;4.10;;
24650;SDS011;12783;48.824;8.662;2023-04-25T00:36:34;8.43;;;2.85;;
24650;SDS011;12783;48.824;8.662;2023-04-25T00:39:02;4.72;;;2.60;;
24650;SDS011;12783;48.824;8.662;2023-04-25T00:41:30;2.78;;;2.40;;
24650;SDS011;12783;48.824;8.662;2023-04-25T00:43:58;6.05;;;2.63;;
24650;SDS011;12783;48.824;8.662;2023-04-25T00:46:26;2.90;;;2.60;;
24650;SDS011;12783;48.824;8.662;2023-04-25T00:48:53;6.63;;;2.72;;
24650;SDS011;12783;48.824;8.662;2023-04-25T00:51:20;3.00;;;2.33;;
24650;SDS011;12783;48.824;8.662;2023-04-25T00:53:48;3.28;;;2.30;;
24650;SDS011;12783;48.824;8.662;2023-04-25T00:56:17;2.25;;;2.05;;
24650;SDS011;12783;48.824;8.662;2023-04-25T00:58:44;4.07;;;2.50;;
24650;SDS011;12783;48.824;8.662;2023-04-25T01:01:11;3.97;;;2.53;;
24650;SDS011;12783;48.824;8.662;2023-04-25T01:03:39;3.83;;;2.60;;
24650;SDS011;12783;48.824;8.662;2023-04-25T01:06:10;5.32;;;2.88;;
24650;SDS011;12783;48.824;8.662;2023-04-25T01:08:38;6.45;;;2.90;;
24650;SDS011;12783;48.824;8.662;2023-04-25T01:11:05;3.72;;;2.88;;
24650;SDS011;12783;48.824;8.662;2023-04-25T01:13:33;4.25;;;2.83;;
24650;SDS011;12783;48.824;8.662;2023-04-25T01:16:01;5.40;;;3.20;;
24650;SDS011;12783;48.824;8.662;2023-04-25T01:18:29;5.18;;;3.03;;
24650;SDS011;12783;48.824;8.662;2023-04-25T01:20:56;6.55;;;3.47;;
24650;SDS011;12783;48.824;8.662;2023-04-25T01:23:40;4.75;;;2.80;;
24650;SDS011;12783;48.824;8.662;2023-04-25T01:26:08;6.00;;;2.90;;
24650;SDS011;12783;48.824;8.662;2023-04-25T01:28:37;4.68;;;3.13;;
24650;SDS011;12783;48.824;8.662;2023-04-25T01:31:07;7.25;;;3.47;;
24650;SDS011;12783;48.824;8.662;2023-04-25T01:33:35;5.30;;;3.28;;
24650;SDS011;12783;48.824;8.662;2023-04-25T01:36:02;5.53;;;3.25;;
24650;SDS011;12783;48.824;8.662;2023-04-25T01:38:29;4.75;;;3.72;;
24650;SDS011;12783;48.824;8.662;2023-04-25T01:40:57;4.45;;;3.35;;
24650;SDS011;12783;48.824;8.662;2023-04-25T01:43:24;4.80;;;3.22;;
24650;SDS011;12783;48.824;8.662;2023-04-25T01:45:52;4.75;;;3.60;;
24650;SDS011;12783;48.824;8.662;2023-04-25T01:48:19;8.18;;;3.75;;
24650;SDS011;12783;48.824;8.662;2023-04-25T01:50:46;6.03;;;3.80;;
24650;SDS011;12783;48.824;8.662;2023-04-25T01:53:13;5.60;;;3.80;;
24650;SDS011;12783;48.824;8.662;2023-04-25T01:55:40;7.35;;;4.43;;
24650;SDS011;12783;48.824;8.662;2023-04-25T01:58:08;5.50;;;4.07;;
24650;SDS011;12783;48.824;8.662;2023-04-25T02:00:36;8.25;;;4.28;;
24650;SDS011;12783;48.824;8.662;2023-04-25T02:03:05;8.02;;;4.93;;
24650;SDS011;12783;48.824;8.662;2023-04-25T02:05:36;10.00;;;5.00;;
24650;SDS011;12783;48.824;8.662;2023-04-25T02:08:05;9.73;;;5.90;;
24650;SDS011;12783;48.824;8.662;2023-04-25T02:10:33;8.95;;;5.82;;
24650;SDS011;12783;48.824;8.662;2023-04-25T02:13:01;11.90;;;5.88;;
24650;SDS011;12783;48.824;8.662;2023-04-25T02:15:30;10.10;;;6.20;;
24650;SDS011;12783;48.824;8.662;2023-04-25T02:17:57;10.63;;;6.45;;
24650;SDS011;12783;48.824;8.662;2023-04-25T02:20:27;13.48;;;7.18;;
24650;SDS011;12783;48.824;8.662;2023-04-25T02:22:56;11.98;;;7.78;;
24650;SDS011;12783;48.824;8.662;2023-04-25T02:25:23;15.02;;;8.32;;
24650;SDS011;12783;48.824;8.662;2023-04-25T02:27:50;15.80;;;7.82;;
24650;SDS011;12783;48.824;8.662;2023-04-25T02:30:17;15.02;;;8.90;;
24650;SDS011;12783;48.824;8.662;2023-04-25T02:32:44;11.35;;;8.43;;
24650;SDS011;12783;48.824;8.662;2023-04-25T02:35:11;14.35;;;9.43;;
24650;SDS011;12783;48.824;8.662;2023-04-25T02:37:38;13.05;;;9.50;;
24650;SDS011;12783;48.824;8.662;2023-04-25T02:40:06;18.35;;;9.65;;
24650;SDS011;12783;48.824;8.662;2023-04-25T02:42:34;14.93;;;9.20;;
24650;SDS011;12783;48.824;8.662;2023-04-25T02:45:02;15.63;;;9.32;;
24650;SDS011;12783;48.824;8.662;2023-04-25T02:47:29;15.70;;;8.73;;
24650;SDS011;12783;48.824;8.662;2023-04-25T02:49:56;15.82;;;9.15;;
24650;SDS011;12783;48.824;8.662;2023-04-25T02:52:23;13.70;;;8.70;;
24650;SDS011;12783;48.824;8.662;2023-04-25T02:54:51;13.07;;;7.95;;
24650;SDS011;12783;48.824;8.662;2023-04-25T02:57:18;9.63;;;7.43;;
24650;SDS011;12783;48.824;8.662;2023-04-25T02:59:45;10.60;;;7.40;;
24650;SDS011;12783;48.824;8.662;2023-04-25T03:02:12;11.63;;;7.93;;
24650;SDS011;12783;48.824;8.662;2023-04-25T03:04:39;11.07;;;7.18;;
24650;SDS011;12783;48.824;8.662;2023-04-25T03:07:06;12.32;;;7.22;;
24650;SDS011;12783;48.824;8.662;2023-04-25T03:09:33;14.35;;;7.30;;
24650;SDS011;12783;48.824;8.662;2023-04-25T03:12:00;14.77;;;7.25;;
24650;SDS011;12783;48.824;8.662;2023-04-25T03:14:27;9.32;;;6.80;;
24650;SDS011;12783;48.824;8.662;2023-04-25T03:16:54;10.30;;;7.22;;
24650;SDS011;12783;48.824;8.662;2023-04-25T03:19:21;10.13;;;7.07;;
24650;SDS011;12783;48.824;8.662;2023-04-25T03:21:48;9.55;;;6.75;;
24650;SDS011;12783;48.824;8.662;2023-04-25T03:24:15;11.88;;;7.20;;
24650;SDS011;12783;48.824;8.662;2023-04-25T03:26:42;10.38;;;7.15;;
24650;SDS011;12783;48.824;8.662;2023-04-25T03:29:08;12.00;;;6.95;;
24650;SDS011;12783;48.824;8.662;2023-04-25T03:31:35;9.45;;;6.85;;
24650;SDS011;12783;48.824;8.662;2023-04-25T03:34:02;9.23;;;5.97;;
24650;SDS011;12783;48.824;8.662;2023-04-25T03:36:29;12.93;;;7.30;;
24650;SDS011;12783;48.824;8.662;2023-04-25T03:38:56;13.50;;;6.18;;
24650;SDS011;12783;48.824;8.662;2023-04-25T03:41:22;9.38;;;6.60;;
24650;SDS011;12783;48.824;8.662;2023-04-25T03:43:49;10.13;;;6.53;;
24650;SDS011;12783;48.824;8.662;2023-04-25T03:46:16;11.43;;;6.13;;
24650;SDS011;12783;48.824;8.662;2023-04-25T03:48:43;8.82;;;6.38;;
24650;SDS011;12783;48.824;8.662;2023-04-25T03:51:10;10.23;;;6.22;;
24650;SDS011;12783;48.824;8.662;2023-04-25T03:53:37;8.32;;;5.65;;
24650;SDS011;12783;48.824;8.662;2023-04-25T03:56:04;8.15;;;5.72;;
24650;SDS011;12783;48.824;8.662;2023-04-25T03:58:31;10.10;;;5.70;;
24650;SDS011;12783;48.824;8.662;2023-04-25T04:00:58;8.98;;;5.65;;
24650;SDS011;12783;48.824;8.662;2023-04-25T04:03:25;9.05;;;5.50;;
24650;SDS011;12783;48.824;8.662;2023-04-25T04:05:52;9.82;;;5.65;;
24650;SDS011;12783;48.824;8.662;2023-04-25T04:08:19;7.80;;;5.32;;
24650;SDS011;12783;48.824;8.662;2023-04-25T04:10:46;8.15;;;4.85;;
24650;SDS011;12783;48.824;8.662;2023-04-25T04:13:13;7.28;;;5.00;;
24650;SDS011;12783;48.824;8.662;2023-04-25T04:15:40;6.75;;;5.00;;
24650;SDS011;12783;48.824;8.662;2023-04-25T04:18:07;7.63;;;5.25;;
24650;SDS011;12783;48.824;8.662;2023-04-25T04:20:34;7.97;;;5.28;;
24650;SDS011;12783;48.824;8.662;2023-04-25T04:23:01;8.38;;;5.10;;
24650;SDS011;12783;48.824;8.662;2023-04-25T04:25:27;8.32;;;5.35;;
24650;SDS011;12783;48.824;8.662;2023-04-25T04:27:54;11.38;;;5.38;;
24650;SDS011;12783;48.824;8.662;2023-04-25T04:30:24;7.68;;;5.10;;
24650;SDS011;12783;48.824;8.662;2023-04-25T04:32:51;8.07;;;4.70;;
24650;SDS011;12783;48.824;8.662;2023-04-25T04:35:18;9.00;;;5.05;;
24650;SDS011;12783;48.824;8.662;2023-04-25T04:37:45;7.15;;;5.35;;
24650;SDS011;12783;48.824;8.662;2023-04-25T04:40:12;9.43;;;5.97;;
24650;SDS011;12783;48.824;8.662;2023-04-25T04:42:42;9.93;;;6.32;;
24650;SDS011;12783;48.824;8.662;2023-04-25T04:45:09;7.88;;;5.15;;
24650;SDS011;12783;48.824;8.662;2023-04-25T04:47:37;6.72;;;5.20;;
24650;SDS011;12783;48.824;8.662;2023-04-25T04:50:06;8.02;;;5.63;;
24650;SDS011;12783;48.824;8.662;2023-04-25T04:52:35;10.50;;;5.78;;
24650;SDS011;12783;48.824;8.662;2023-04-25T04:55:05;8.82;;;6.35;;
24650;SDS011;12783;48.824;8.662;2023-04-25T04:57:32;8.35;;;5.65;;
24650;SDS011;12783;48.824;8.662;2023-04-25T05:00:00;8.82;;;5.75;;
24650;SDS011;12783;48.824;8.662;2023-04-25T05:02:27;8.38;;;5.57;;
24650;SDS011;12783;48.824;8.662;2023-04-25T05:04:55;8.98;;;5.95;;
24650;SDS011;12783;48.824;8.662;2023-04-25T05:07:23;8.32;;;6.10;;
24650;SDS011;12783;48.824;8.662;2023-04-25T05:09:50;10.40;;;5.53;;
24650;SDS011;12783;48.824;8.662;2023-04-25T05:12:16;9.43;;;5.75;;
24650;SDS011;12783;48.824;8.662;2023-04-25T05:14:44;8.55;;;5.15;;
24650;SDS011;12783;48.824;8.662;2023-04-25T05:17:10;8.25;;;5.30;;
24650;SDS011;12783;48.824;8.662;2023-04-25T05:19:37;8.15;;;5.40;;
24650;SDS011;12783;48.824;8.662;2023-04-25T05:22:05;6.32;;;4.70;;
24650;SDS011;12783;48.824;8.662;2023-04-25T05:24:32;7.65;;;5.00;;
24650;SDS011;12783;48.824;8.662;2023-04-25T05:26:59;9.43;;;4.93;;
24650;SDS011;12783;48.824;8.662;2023-04-25T05:29:26;7.13;;;4.72;;
24650;SDS011;12783;48.824;8.662;2023-04-25T05:31:53;13.15;;;8.18;;
24650;SDS011;12783;48.824;8.662;2023-04-25T05:34:20;9.57;;;6.72;;
24650;SDS011;12783;48.824;8.662;2023-04-25T05:36:47;9.85;;;5.20;;
24650;SDS011;12783;48.824;8.662;2023-04-25T05:39:16;6.10;;;4.75;;
24650;SDS011;12783;48.824;8.662;2023-04-25T05:41:43;6.45;;;4.40;;
24650;SDS011;12783;48.824;8.662;2023-04-25T05:44:10;5.85;;;4.32;;
24650;SDS011;12783;48.824;8.662;2023-04-25T05:46:37;7.07;;;4.80;;
24650;SDS011;12783;48.824;8.662;2023-04-25T05:49:04;8.65;;;4.57;;
24650;SDS011;12783;48.824;8.662;2023-04-25T05:51:31;6.53;;;4.47;;
24650;SDS011;12783;48.824;8.662;2023-04-25T05:53:58;6.00;;;3.83;;
24650;SDS011;12783;48.824;8.662;2023-04-25T05:56:25;7.85;;;4.03;;
24650;SDS011;12783;48.824;8.662;2023-04-25T05:58:52;6.88;;;3.95;;
24650;SDS011;12783;48.824;8.662;2023-04-25T06:01:19;7.93;;;4.10;;
24650;SDS011;12783;48.824;8.662;2023-04-25T06:03:46;5.35;;;3.80;;
24650;SDS011;12783;48.824;8.662;2023-04-25T06:06:14;4.75;;;3.30;;
24650;SDS011;12783;48.824;8.662;2023-04-25T06:08:41;5.75;;;3.97;;
24650;SDS011;12783;48.824;8.662;2023-04-25T06:11:07;5.72;;;3.78;;
24650;SDS011;12783;48.824;8.662;2023-04-25T06:13:34;5.50;;;3.78;;
24650;SDS011;12783;48.824;8.662;2023-04-25T06:16:01;7.40;;;3.53;;
24650;SDS011;12783;48.824;8.662;2023-04-25T06:18:28;4.97;;;3.47;;
24650;SDS011;12783;48.824;8.662;2023-04-25T06:20:55;5.65;;;4.00;;
24650;SDS011;12783;48.824;8.662;2023-04-25T06:23:22;5.72;;;3.78;;
24650;SDS011;12783;48.824;8.662;2023-04-25T06:25:49;7.50;;;4.10;;
24650;SDS011;12783;48.824;8.662;2023-04-25T06:28:16;5.72;;;3.95;;
24650;SDS011;12783;48.824;8.662;2023-04-25T06:30:43;7.97;;;3.90;;
24650;SDS011;12783;48.824;8.662;2023-04-25T06:33:09;4.75;;;4.00;;
24650;SDS011;12783;48.824;8.662;2023-04-25T06:35:37;6.00;;;4.53;;
24650;SDS011;12783;48.824;8.662;2023-04-25T06:38:03;6.03;;;4.03;;
24650;SDS011;12783;48.824;8.662;2023-04-25T06:40:30;6.10;;;3.88;;
24650;SDS011;12783;48.824;8.662;2023-04-25T06:42:57;5.68;;;3.50;;
24650;SDS011;12783;48.824;8.662;2023-04-25T06:45:24;7.10;;;3.97;;
24650;SDS011;12783;48.824;8.662;2023-04-25T06:47:51;8.93;;;4.05;;
24650;SDS011;12783;48.824;8.662;2023-04-25T06:50:18;7.22;;;4.70;;
24650;SDS011;12783;48.824;8.662;2023-04-25T06:52:45;7.55;;;4.10;;
24650;SDS011;12783;48.824;8.662;2023-04-25T06:55:12;6.00;;;4.43;;
24650;SDS011;12783;48.824;8.662;2023-04-25T06:57:39;6.22;;;4.38;;
24650;SDS011;12783;48.824;8.662;2023-04-25T07:00:06;5.18;;;4.30;;
24650;SDS011;12783;48.824;8.662;2023-04-25T07:02:35;7.00;;;4.25;;
24650;SDS011;12783;48.824;8.662;2023-04-25T07:05:02;9.23;;;5.18;;
24650;SDS011;12783;48.824;8.662;2023-04-25T07:07:30;8.13;;;4.85;;
24650;SDS011;12783;48.824;8.662;2023-04-25T07:09:57;8.85;;;4.68;;
24650;SDS011;12783;48.824;8.662;2023-04-25T07:12:24;7.55;;;4.70;;
24650;SDS011;12783;48.824;8.662;2023-04-25T07:14:51;7.00;;;5.03;;
24650;SDS011;12783;48.824;8.662;2023-04-25T07:17:18;11.35;;;7.13;;
24650;SDS011;12783;48.824;8.662;2023-04-25T07:19:44;13.52;;;6.50;;
24650;SDS011;12783;48.824;8.662;2023-04-25T07:22:11;7.07;;;4.93;;
24650;SDS011;12783;48.824;8.662;2023-04-25T07:24:38;6.72;;;4.85;;
24650;SDS011;12783;48.824;8.662;2023-04-25T07:27:05;9.60;;;5.43;;
24650;SDS011;12783;48.824;8.662;2023-04-25T07:29:32;9.20;;;5.85;;
24650;SDS011;12783;48.824;8.662;2023-04-25T07:32:02;11.88;;;5.75;;
24650;SDS011;12783;48.824;8.662;2023-04-25T07:34:30;9.07;;;5.60;;
24650;SDS011;12783;48.824;8.662;2023-04-25T07:36:57;8.80;;;5.60;;
24650;SDS011;12783;48.824;8.662;2023-04-25T07:39:25;9.80;;;5.95;;
24650;SDS011;12783;48.824;8.662;2023-04-25T07:41:53;8.45;;;5.10;;
24650;SDS011;12783;48.824;8.662;2023-04-25T07:44:20;8.40;;;5.35;;
24650;SDS011;12783;48.824;8.662;2023-04-25T07:46:47;7.55;;;5.28;;
24650;SDS011;12783;48.824;8.662;2023-04-25T07:49:14;7.82;;;5.10;;
24650;SDS011;12783;48.824;8.662;2023-04-25T07:51:42;6.88;;;4.82;;
24650;SDS011;12783;48.824;8.662;2023-04-25T07:54:13;7.13;;;4.70;;
24650;SDS011;12783;48.824;8.662;2023-04-25T07:56:42;7.47;;;5.00;;
24650;SDS011;12783;48.824;8.662;2023-04-25T07:59:18;6.82;;;4.75;;
24650;SDS011;12783;48.824;8.662;2023-04-25T08:01:46;7.60;;;4.78;;
24650;SDS011;12783;48.824;8.662;2023-04-25T08:04:13;8.15;;;4.90;;
24650;SDS011;12783;48.824;8.662;2023-04-25T08:06:40;5.60;;;4.25;;
24650;SDS011;12783;48.824;8.662;2023-04-25T08:09:07;5.15;;;3.88;;
24650;SDS011;12783;48.824;8.662;2023-04-25T08:11:36;6.07;;;4.13;;
24650;SDS011;12783;48.824;8.662;2023-04-25T08:14:04;5.90;;;3.67;;
24650;SDS011;12783;48.824;8.662;2023-04-25T08:16:31;5.22;;;3.50;;
24650;SDS011;12783;48.824;8.662;2023-04-25T08:18:59;4.13;;;3.25;;
24650;SDS011;12783;48.824;8.662;2023-04-25T08:21:26;2.95;;;2.65;;
24650;SDS011;12783;48.824;8.662;2023-04-25T08:23:53;3.72;;;2.88;;
24650;SDS011;12783;48.824;8.662;2023-04-25T08:26:20;3.00;;;2.38;;
24650;SDS011;12783;48.824;8.662;2023-04-25T08:28:47;2.92;;;2.28;;
24650;SDS011;12783;48.824;8.662;2023-04-25T08:31:14;4.82;;;1.88;;
24650;SDS011;12783;48.824;8.662;2023-04-25T08:33:41;2.30;;;1.95;;
24650;SDS011;12783;48.824;8.662;2023-04-25T08:36:08;2.20;;;1.98;;
24650;SDS011;12783;48.824;8.662;2023-04-25T08:38:35;2.53;;;2.22;;
24650;SDS011;12783;48.824;8.662;2023-04-25T08:41:03;2.55;;;2.13;;
24650;SDS011;12783;48.824;8.662;2023-04-25T08:43:31;2.88;;;2.10;;
24650;SDS011;12783;48.824;8.662;2023-04-25T08:46:01;3.13;;;2.22;;
24650;SDS011;12783;48.824;8.662;2023-04-25T08:48:28;2.60;;;2.20;;
24650;SDS011;12783;48.824;8.662;2023-04-25T08:51:00;2.25;;;2.03;;
24650;SDS011;12783;48.824;8.662;2023-04-25T08:53:33;2.60;;;1.90;;
24650;SDS011;12783;48.824;8.662;2023-04-25T08:56:01;2.50;;;1.52;;
24650;SDS011;12783;48.824;8.662;2023-04-25T08:58:29;1.67;;;1.58;;
24650;SDS011;12783;48.824;8.662;2023-04-25T09:00:58;1.48;;;1.30;;
24650;SDS011;12783;48.824;8.662;2023-04-25T09:03:26;1.85;;;1.40;;
24650;SDS011;12783;48.824;8.662;2023-04-25T09:05:54;1.58;;;1.30;;
24650;SDS011;12783;48.824;8.662;2023-04-25T09:08:22;1.45;;;1.33;;
24650;SDS011;12783;48.824;8.662;2023-04-25T09:10:48;1.10;;;1.00;;
24650;SDS011;12783;48.824;8.662;2023-04-25T09:13:20;1.73;;;1.20;;
24650;SDS011;12783;48.824;8.662;2023-04-25T09:15:54;1.88;;;1.50;;
24650;SDS011;12783;48.824;8.662;2023-04-25T09:18:27;1.70;;;1.17;;
24650;SDS011;12783;48.824;8.662;2023-04-25T09:20:57;1.35;;;1.25;;
24650;SDS011;12783;48.824;8.662;2023-04-25T09:23:40;1.48;;;1.20;;
24650;SDS011;12783;48.824;8.662;2023-04-25T09:26:19;1.60;;;1.40;;
24650;SDS011;12783;48.824;8.662;2023-04-25T09:28:46;1.13;;;1.02;;
24650;SDS011;12783;48.824;8.662;2023-04-25T09:31:22;1.58;;;1.00;;
24650;SDS011;12783;48.824;8.662;2023-04-25T09:33:59;1.02;;;0.93;;
24650;SDS011;12783;48.824;8.662;2023-04-25T09:36:30;1.20;;;1.10;;
24650;SDS011;12783;48.824;8.662;2023-04-25T09:38:57;1.40;;;1.30;;
24650;SDS011;12783;48.824;8.662;2023-04-25T09:41:27;1.48;;;0.88;;
24650;SDS011;12783;48.824;8.662;2023-04-25T09:43:56;1.70;;;1.20;;
24650;SDS011;12783;48.824;8.662;2023-04-25T09:46:32;1.67;;;1.13;;
24650;SDS011;12783;48.824;8.662;2023-04-25T09:49:05;1.20;;;0.90;;
24650;SDS011;12783;48.824;8.662;2023-04-25T09:51:34;1.02;;;0.82;;
24650;SDS011;12783;48.824;8.662;2023-04-25T09:54:01;1.35;;;0.60;;
24650;SDS011;12783;48.824;8.662;2023-04-25T09:56:28;0.60;;;0.60;;
24650;SDS011;12783;48.824;8.662;2023-04-25T09:59:03;0.70;;;0.70;;
24650;SDS011;12783;48.824;8.662;2023-04-25T10:01:31;0.77;;;0.50;;
24650;SDS011;12783;48.824;8.662;2023-04-25T10:03:59;0.70;;;0.70;;
24650;SDS011;12783;48.824;8.662;2023-04-25T10:06:28;0.30;;;0.30;;
24650;SDS011;12783;48.824;8.662;2023-04-25T10:08:57;0.30;;;0.30;;
24650;SDS011;12783;48.824;8.662;2023-04-25T10:11:24;0.40;;;0.40;;
24650;SDS011;12783;48.824;8.662;2023-04-25T10:13:52;0.60;;;0.50;;
24650;SDS011;12783;48.824;8.662;2023-04-25T10:16:19;0.32;;;0.32;;
24650;SDS011;12783;48.824;8.662;2023-04-25T10:18:47;0.77;;;0.32;;
24650;SDS011;12783;48.824;8.662;2023-04-25T10:21:16;0.40;;;0.40;;
24650;SDS011;12783;48.824;8.662;2023-04-25T10:23:44;0.50;;;0.50;;
24650;SDS011;12783;48.824;8.662;2023-04-25T10:26:12;0.57;;;0.57;;
24650;SDS011;12783;48.824;8.662;2023-04-25T10:28:56;2.55;;;0.80;;
24650;SDS011;12783;48.824;8.662;2023-04-25T10:31:26;1.13;;;1.02;;
24650;SDS011;12783;48.824;8.662;2023-04-25T10:33:53;1.58;;;1.30;;
24650;SDS011;12783;48.824;8.662;2023-04-25T10:36:21;1.52;;;1.42;;
24650;SDS011;12783;48.824;8.662;2023-04-25T10:38:50;1.98;;;1.67;;
24650;SDS011;12783;48.824;8.662;2023-04-25T10:41:19;2.33;;;2.00;;
24650;SDS011;12783;48.824;8.662;2023-04-25T10:43:47;2.33;;;2.10;;
24650;SDS011;12783;48.824;8.662;2023-04-25T10:48:58;16.08;;;8.90;;
24650;SDS011;12783;48.824;8.662;2023-04-25T10:51:31;16.73;;;9.80;;
24650;SDS011;12783;48.824;8.662;2023-04-25T10:54:19;18.90;;;9.60;;
24650;SDS011;12783;48.824;8.662;2023-04-25T10:56:48;18.23;;;8.60;;
24650;SDS011;12783;48.824;8.662;2023-04-25T10:59:18;14.32;;;7.88;;
24650;SDS011;12783;48.824;8.662;2023-04-25T11:01:47;14.80;;;8.60;;
24650;SDS011;12783;48.824;8.662;2023-04-25T11:04:24;11.52;;;7.22;;
24650;SDS011;12783;48.824;8.662;2023-04-25T11:07:12;11.48;;;7.32;;
24650;SDS011;12783;48.824;8.662;2023-04-25T11:09:50;14.90;;;8.32;;
24650;SDS011;12783;48.824;8.662;2023-04-25T11:12:17;15.43;;;8.95;;
24650;SDS011;12783;48.824;8.662;2023-04-25T11:14:44;13.32;;;7.70;;
24650;SDS011;12783;48.824;8.662;2023-04-25T11:17:11;18.17;;;8.00;;
24650;SDS011;12783;48.824;8.662;2023-04-25T11:19:38;11.18;;;6.18;;
24650;SDS011;12783;48.824;8.662;2023-04-25T11:22:05;10.25;;;7.15;;
24650;SDS011;12783;48.824;8.662;2023-04-25T11:24:33;11.88;;;8.85;;
24650;SDS011;12783;48.824;8.662;2023-04-25T11:27:02;7.40;;;4.63;;
24650;SDS011;12783;48.824;8.662;2023-04-25T11:29:32;10.18;;;4.88;;
24650;SDS011;12783;48.824;8.662;2023-04-25T11:32:01;5.60;;;4.15;;
24650;SDS011;12783;48.824;8.662;2023-04-25T11:34:28;6.82;;;3.72;;
24650;SDS011;12783;48.824;8.662;2023-04-25T11:36:57;5.10;;;3.70;;
24650;SDS011;12783;48.824;8.662;2023-04-25T11:39:26;7.88;;;3.67;;
24650;SDS011;12783;48.824;8.662;2023-04-25T11:41:53;5.07;;;3.20;;
24650;SDS011;12783;48.824;8.662;2023-04-25T11:44:21;5.65;;;4.00;;
24650;SDS011;12783;48.824;8.662;2023-04-25T11:46:48;3.83;;;2.75;;
24650;SDS011;12783;48.824;8.662;2023-04-25T11:49:15;5.05;;;3.50;;
24650;SDS011;12783;48.824;8.662;2023-04-25T11:51:45;4.63;;;3.05;;
24650;SDS011;12783;48.824;8.662;2023-04-25T11:54:14;5.15;;;3.10;;
24650;SDS011;12783;48.824;8.662;2023-04-25T11:56:45;2.28;;;1.83;;
24650;SDS011;12783;48.824;8.662;2023-04-25T11:59:12;3.08;;;2.10;;
24650;SDS011;12783;48.824;8.662;2023-04-25T12:01:41;4.05;;;1.80;;
24650;SDS011;12783;48.824;8.662;2023-04-25T12:06:47;2.05;;;1.35;;
24650;SDS011;12783;48.824;8.662;2023-04-25T12:09:18;5.60;;;3.00;;
24650;SDS011;12783;48.824;8.662;2023-04-25T12:11:48;7.00;;;4.10;;
24650;SDS011;12783;48.824;8.662;2023-04-25T12:14:31;6.70;;;4.40;;
24650;SDS011;12783;48.824;8.662;2023-04-25T12:17:00;3.92;;;2.90;;
24650;SDS011;12783;48.824;8.662;2023-04-25T12:19:33;11.02;;;5.90;;
24650;SDS011;12783;48.824;8.662;2023-04-25T12:22:23;15.10;;;7.32;;
24650;SDS011;12783;48.824;8.662;2023-04-25T12:24:50;19.38;;;10.35;;
24650;SDS011;12783;48.824;8.662;2023-04-25T12:27:20;13.57;;;8.10;;
24650;SDS011;12783;48.824;8.662;2023-04-25T12:29:53;12.00;;;7.95;;
24650;SDS011;12783;48.824;8.662;2023-04-25T12:32:22;15.55;;;10.02;;
24650;SDS011;12783;48.824;8.662;2023-04-25T12:34:50;13.23;;;7.93;;
24650;SDS011;12783;48.824;8.662;2023-04-25T12:37:17;15.40;;;9.05;;
24650;SDS011;12783;48.824;8.662;2023-04-25T12:39:44;19.33;;;11.10;;
24650;SDS011;12783;48.824;8.662;2023-04-25T12:42:11;17.70;;;10.40;;
24650;SDS011;12783;48.824;8.662;2023-04-25T12:44:39;15.45;;;9.98;;
24650;SDS011;12783;48.824;8.662;2023-04-25T12:47:06;14.98;;;8.68;;
24650;SDS011;12783;48.824;8.662;2023-04-25T12:49:33;12.60;;;8.25;;
24650;SDS011;12783;48.824;8.662;2023-04-25T12:52:01;11.52;;;7.15;;
24650;SDS011;12783;48.824;8.662;2023-04-25T12:54:27;9.63;;;7.30;;
24650;SDS011;12783;48.824;8.662;2023-04-25T12:56:54;9.43;;;6.97;;
24650;SDS011;12783;48.824;8.662;2023-04-25T12:59:21;10.48;;;6.68;;
24650;SDS011;12783;48.824;8.662;2023-04-25T13:01:48;9.88;;;6.25;;
24650;SDS011;12783;48.824;8.662;2023-04-25T13:04:15;11.02;;;6.85;;
24650;SDS011;12783;48.824;8.662;2023-04-25T13:06:43;9.60;;;6.75;;
24650;SDS011;12783;48.824;8.662;2023-04-25T13:09:09;11.13;;;6.43;;
24650;SDS011;12783;48.824;8.662;2023-04-25T13:11:38;6.05;;;3.95;;
24650;SDS011;12783;48.824;8.662;2023-04-25T13:14:06;6.50;;;4.53;;
24650;SDS011;12783;48.824;8.662;2023-04-25T13:16:34;10.38;;;6.13;;
24650;SDS011;12783;48.824;8.662;2023-04-25T13:19:01;8.43;;;5.72;;
24650;SDS011;12783;48.824;8.662;2023-04-25T13:21:29;8.93;;;5.00;;
24650;SDS011;12783;48.824;8.662;2023-04-25T13:23:58;6.68;;;5.00;;
24650;SDS011;12783;48.824;8.662;2023-04-25T13:26:25;13.00;;;6.18;;
24650;SDS011;12783;48.824;8.662;2023-04-25T13:28:52;15.63;;;10.60;;
24650;SDS011;12783;48.824;8.662;2023-04-25T13:31:19;7.88;;;5.03;;
24650;SDS011;12783;48.824;8.662;2023-04-25T13:33:46;7.88;;;5.68;;
24650;SDS011;12783;48.824;8.662;2023-04-25T13:36:13;6.53;;;4.30;;
24650;SDS011;12783;48.824;8.662;2023-04-25T13:38:40;6.47;;;4.57;;
24650;SDS011;12783;48.824;8.662;2023-04-25T13:41:10;6.82;;;4.30;;
24650;SDS011;12783;48.824;8.662;2023-04-25T13:43:41;5.88;;;4.28;;
24650;SDS011;12783;48.824;8.662;2023-04-25T13:46:08;6.00;;;4.30;;
24650;SDS011;12783;48.824;8.662;2023-04-25T13:48:56;5.00;;;3.92;;
24650;SDS011;12783;48.824;8.662;2023-04-25T13:51:35;6.75;;;4.40;;
24650;SDS011;12783;48.824;8.662;2023-04-25T13:54:02;8.32;;;4.00;;
24650;SDS011;12783;48.824;8.662;2023-04-25T13:56:29;4.28;;;3.10;;
24650;SDS011;12783;48.824;8.662;2023-04-25T13:58:56;6.93;;;3.72;;
24650;SDS011;12783;48.824;8.662;2023-04-25T14:01:23;4.05;;;3.20;;
24650;SDS011;12783;48.824;8.662;2023-04-25T14:03:50;6.78;;;3.70;;
24650;SDS011;12783;48.824;8.662;2023-04-25T14:06:17;4.55;;;3.50;;
24650;SDS011;12783;48.824;8.662;2023-04-25T14:08:52;5.43;;;3.67;;
24650;SDS011;12783;48.824;8.662;2023-04-25T14:11:19;4.75;;;3.20;;
24650;SDS011;12783;48.824;8.662;2023-04-25T14:13:46;5.25;;;3.13;;
24650;SDS011;12783;48.824;8.662;2023-04-25T14:16:15;4.75;;;3.35;;
24650;SDS011;12783;48.824;8.662;2023-04-25T14:18:42;8.27;;;4.82;;
24650;SDS011;12783;48.824;8.662;2023-04-25T14:21:09;5.88;;;3.85;;
24650;SDS011;12783;48.824;8.662;2023-04-25T14:23:36;4.88;;;3.40;;
24650;SDS011;12783;48.824;8.662;2023-04-25T14:26:03;5.13;;;3.90;;
24650;SDS011;12783;48.824;8.662;2023-04-25T14:28:31;5.80;;;3.92;;
24650;SDS011;12783;48.824;8.662;2023-04-25T14:30:58;3.78;;;3.05;;
24650;SDS011;12783;48.824;8.662;2023-04-25T14:33:25;5.57;;;4.20;;
24650;SDS011;12783;48.824;8.662;2023-04-25T14:35:51;3.95;;;2.85;;
24650;SDS011;12783;48.824;8.662;2023-04-25T14:38:19;4.22;;;3.08;;
24650;SDS011;12783;48.824;8.662;2023-04-25T14:40:49;4.47;;;3.13;;
24650;SDS011;12783;48.824;8.662;2023-04-25T14:43:16;26.73;;;18.75;;
24650;SDS011;12783;48.824;8.662;2023-04-25T14:45:44;5.25;;;3.33;;
24650;SDS011;12783;48.824;8.662;2023-04-25T14:48:11;8.63;;;5.30;;
24650;SDS011;12783;48.824;8.662;2023-04-25T14:50:39;6.05;;;3.70;;
24650;SDS011;12783;48.824;8.662;2023-04-25T14:53:06;7.00;;;4.20;;
24650;SDS011;12783;48.824;8.662;2023-04-25T14:55:32;7.38;;;3.95;;
24650;SDS011;12783;48.824;8.662;2023-04-25T14:57:59;9.93;;;7.00;;